sensor_id;sensor_type;location;lat;lon;timestamp;P1;durP1;ratioP1;P2;durP2;ratioP2
76953;SDS011;65893;51.698;-0.292;2023-02-07T00:00:10;23.67;;;8.55;;
76953;SDS011;65893;51.698;-0.292;2023-02-07T00:02:36;26.08;;;6.70;;
76953;SDS011;65893;51.698;-0.292;2023-02-07T00:05:03;19.08;;;6.18;;
76953;SDS011;65893;51.698;-0.292;2023-02-07T00:07:31;23.98;;;7.65;;
76953;SDS011;65893;51.698;-0.292;2023-02-07T00:09:57;26.42;;;7.00;;
76953;SDS011;65893;51.698;-0.292;2023-02-07T00:14:49;24.02;;;7.07;;
76953;SDS011;65893;51.698;-0.292;2023-02-07T00:17:15;17.85;;;7.18;;
76953;SDS011;65893;51.698;-0.292;2023-02-07T00:22:07;18.85;;;7.32;;
76953;SDS011;65893;51.698;-0.292;2023-02-07T00:24:33;18.80;;;6.85;;
76953;SDS011;65893;51.698;-0.292;2023-02-07T00:26:59;24.35;;;8.02;;
76953;SDS011;65893;51.698;-0.292;2023-02-07T00:29:25;22.10;;;7.53;;
76953;SDS011;65893;51.698;-0.292;2023-02-07T00:31:51;24.63;;;8.68;;
76953;SDS011;65893;51.698;-0.292;2023-02-07T00:34:17;23.58;;;7.40;;
76953;SDS011;65893;51.698;-0.292;2023-02-07T00:39:11;20.52;;;6.43;;
76953;SDS011;65893;51.698;-0.292;2023-02-07T00:41:37;20.45;;;7.13;;
76953;SDS011;65893;51.698;-0.292;2023-02-07T00:44:03;15.45;;;6.85;;
76953;SDS011;65893;51.698;-0.292;2023-02-07T00:46:31;29.90;;;7.45;;
76953;SDS011;65893;51.698;-0.292;2023-02-07T00:48:57;20.27;;;7.28;;
76953;SDS011;65893;51.698;-0.292;2023-02-07T00:53:53;18.45;;;6.65;;
76953;SDS011;65893;51.698;-0.292;2023-02-07T00:56:19;18.15;;;6.88;;
76953;SDS011;65893;51.698;-0.292;2023-02-07T00:58:45;17.60;;;7.35;;
76953;SDS011;65893;51.698;-0.292;2023-02-07T01:03:37;20.40;;;6.63;;
76953;SDS011;65893;51.698;-0.292;2023-02-07T01:06:04;21.60;;;6.80;;
76953;SDS011;65893;51.698;-0.292;2023-02-07T01:08:30;20.42;;;7.00;;
76953;SDS011;65893;51.698;-0.292;2023-02-07T01:13:22;23.17;;;6.47;;
76953;SDS011;65893;51.698;-0.292;2023-02-07T01:15:48;17.25;;;6.07;;
76953;SDS011;65893;51.698;-0.292;2023-02-07T01:18:14;21.38;;;5.75;;
76953;SDS011;65893;51.698;-0.292;2023-02-07T01:20:41;19.73;;;6.47;;
76953;SDS011;65893;51.698;-0.292;2023-02-07T01:23:07;24.58;;;6.95;;
76953;SDS011;65893;51.698;-0.292;2023-02-07T01:27:59;25.63;;;6.13;;
76953;SDS011;65893;51.698;-0.292;2023-02-07T01:30:25;25.55;;;7.28;;
76953;SDS011;65893;51.698;-0.292;2023-02-07T01:32:51;15.70;;;6.38;;
76953;SDS011;65893;51.698;-0.292;2023-02-07T01:35:17;20.52;;;6.13;;
76953;SDS011;65893;51.698;-0.292;2023-02-07T01:37:43;19.10;;;7.90;;
76953;SDS011;65893;51.698;-0.292;2023-02-07T01:40:10;20.40;;;7.68;;
76953;SDS011;65893;51.698;-0.292;2023-02-07T01:42:36;24.05;;;7.85;;
76953;SDS011;65893;51.698;-0.292;2023-02-07T01:47:28;17.30;;;6.97;;
76953;SDS011;65893;51.698;-0.292;2023-02-07T01:49:55;23.60;;;7.45;;
76953;SDS011;65893;51.698;-0.292;2023-02-07T01:52:24;18.17;;;6.65;;
76953;SDS011;65893;51.698;-0.292;2023-02-07T01:54:53;20.90;;;7.50;;
76953;SDS011;65893;51.698;-0.292;2023-02-07T01:57:22;14.85;;;6.05;;
76953;SDS011;65893;51.698;-0.292;2023-02-07T01:59:49;20.83;;;6.93;;
76953;SDS011;65893;51.698;-0.292;2023-02-07T02:02:18;23.42;;;6.65;;
76953;SDS011;65893;51.698;-0.292;2023-02-07T02:04:46;21.85;;;7.15;;
76953;SDS011;65893;51.698;-0.292;2023-02-07T02:07:13;17.83;;;7.05;;
76953;SDS011;65893;51.698;-0.292;2023-02-07T02:09:40;21.50;;;5.97;;
76953;SDS011;65893;51.698;-0.292;2023-02-07T02:22:24;23.00;;;6.55;;
76953;SDS011;65893;51.698;-0.292;2023-02-07T02:30:44;17.25;;;7.28;;
76953;SDS011;65893;51.698;-0.292;2023-02-07T02:45:45;33.00;;;7.88;;
76953;SDS011;65893;51.698;-0.292;2023-02-07T02:48:13;26.52;;;7.15;;
76953;SDS011;65893;51.698;-0.292;2023-02-07T02:50:43;18.95;;;6.22;;
76953;SDS011;65893;51.698;-0.292;2023-02-07T02:53:09;27.15;;;6.53;;
76953;SDS011;65893;51.698;-0.292;2023-02-07T03:11:13;14.70;;;5.53;;
76953;SDS011;65893;51.698;-0.292;2023-02-07T03:13:46;30.13;;;6.88;;
76953;SDS011;65893;51.698;-0.292;2023-02-07T03:16:27;20.45;;;6.35;;
76953;SDS011;65893;51.698;-0.292;2023-02-07T03:21:25;21.67;;;5.82;;
76953;SDS011;65893;51.698;-0.292;2023-02-07T03:23:52;25.92;;;7.72;;
76953;SDS011;65893;51.698;-0.292;2023-02-07T03:26:19;24.63;;;7.30;;
76953;SDS011;65893;51.698;-0.292;2023-02-07T03:28:48;30.08;;;7.40;;
76953;SDS011;65893;51.698;-0.292;2023-02-07T03:31:14;18.15;;;6.25;;
76953;SDS011;65893;51.698;-0.292;2023-02-07T03:33:42;17.60;;;6.82;;
76953;SDS011;65893;51.698;-0.292;2023-02-07T03:36:10;17.52;;;7.20;;
76953;SDS011;65893;51.698;-0.292;2023-02-07T03:38:40;25.60;;;6.90;;
76953;SDS011;65893;51.698;-0.292;2023-02-07T03:43:32;23.73;;;6.00;;
76953;SDS011;65893;51.698;-0.292;2023-02-07T03:45:59;19.95;;;7.15;;
76953;SDS011;65893;51.698;-0.292;2023-02-07T03:50:51;18.00;;;5.90;;
76953;SDS011;65893;51.698;-0.292;2023-02-07T03:55:43;15.85;;;6.20;;
76953;SDS011;65893;51.698;-0.292;2023-02-07T03:58:09;18.65;;;6.82;;
76953;SDS011;65893;51.698;-0.292;2023-02-07T04:00:35;18.00;;;7.32;;
76953;SDS011;65893;51.698;-0.292;2023-02-07T04:03:02;18.95;;;6.95;;
76953;SDS011;65893;51.698;-0.292;2023-02-07T04:05:28;16.33;;;6.43;;
76953;SDS011;65893;51.698;-0.292;2023-02-07T04:10:20;22.05;;;6.25;;
76953;SDS011;65893;51.698;-0.292;2023-02-07T04:15:12;12.38;;;5.15;;
76953;SDS011;65893;51.698;-0.292;2023-02-07T04:17:38;27.50;;;7.53;;
76953;SDS011;65893;51.698;-0.292;2023-02-07T04:20:04;16.33;;;6.07;;
76953;SDS011;65893;51.698;-0.292;2023-02-07T04:22:30;16.95;;;5.38;;
76953;SDS011;65893;51.698;-0.292;2023-02-07T04:24:57;23.40;;;6.75;;
76953;SDS011;65893;51.698;-0.292;2023-02-07T04:27:23;24.65;;;6.53;;
76953;SDS011;65893;51.698;-0.292;2023-02-07T04:29:49;14.93;;;6.72;;
76953;SDS011;65893;51.698;-0.292;2023-02-07T04:32:16;22.67;;;6.93;;
76953;SDS011;65893;51.698;-0.292;2023-02-07T04:34:42;26.90;;;7.20;;
76953;SDS011;65893;51.698;-0.292;2023-02-07T04:39:35;20.75;;;6.60;;
76953;SDS011;65893;51.698;-0.292;2023-02-07T04:44:27;15.55;;;6.85;;
76953;SDS011;65893;51.698;-0.292;2023-02-07T04:46:54;22.40;;;8.25;;
76953;SDS011;65893;51.698;-0.292;2023-02-07T04:49:20;21.92;;;7.32;;
76953;SDS011;65893;51.698;-0.292;2023-02-07T04:54:12;17.80;;;6.70;;
76953;SDS011;65893;51.698;-0.292;2023-02-07T04:56:39;24.27;;;7.57;;
76953;SDS011;65893;51.698;-0.292;2023-02-07T04:59:05;19.65;;;7.88;;
76953;SDS011;65893;51.698;-0.292;2023-02-07T05:03:57;17.63;;;7.60;;
76953;SDS011;65893;51.698;-0.292;2023-02-07T05:08:49;22.30;;;7.97;;
76953;SDS011;65893;51.698;-0.292;2023-02-07T05:11:15;24.73;;;8.43;;
76953;SDS011;65893;51.698;-0.292;2023-02-07T05:13:42;23.77;;;8.38;;
76953;SDS011;65893;51.698;-0.292;2023-02-07T05:18:34;15.82;;;7.07;;
76953;SDS011;65893;51.698;-0.292;2023-02-07T05:23:26;20.38;;;7.93;;
76953;SDS011;65893;51.698;-0.292;2023-02-07T05:28:18;21.70;;;8.18;;
76953;SDS011;65893;51.698;-0.292;2023-02-07T05:30:44;28.90;;;9.00;;
76953;SDS011;65893;51.698;-0.292;2023-02-07T05:35:38;32.67;;;9.20;;
76953;SDS011;65893;51.698;-0.292;2023-02-07T05:38:06;25.42;;;9.35;;
76953;SDS011;65893;51.698;-0.292;2023-02-07T05:40:33;31.88;;;8.57;;
76953;SDS011;65893;51.698;-0.292;2023-02-07T05:42:59;26.40;;;8.82;;
76953;SDS011;65893;51.698;-0.292;2023-02-07T05:45:25;20.17;;;7.93;;
76953;SDS011;65893;51.698;-0.292;2023-02-07T05:47:51;25.80;;;8.40;;
76953;SDS011;65893;51.698;-0.292;2023-02-07T05:52:43;37.28;;;9.73;;
76953;SDS011;65893;51.698;-0.292;2023-02-07T05:55:10;47.67;;;10.00;;
76953;SDS011;65893;51.698;-0.292;2023-02-07T05:57:37;62.13;;;11.10;;
76953;SDS011;65893;51.698;-0.292;2023-02-07T06:00:04;53.40;;;12.43;;
76953;SDS011;65893;51.698;-0.292;2023-02-07T06:02:30;50.17;;;12.82;;
76953;SDS011;65893;51.698;-0.292;2023-02-07T06:07:22;81.95;;;13.05;;
76953;SDS011;65893;51.698;-0.292;2023-02-07T06:12:14;49.13;;;7.40;;
76953;SDS011;65893;51.698;-0.292;2023-02-07T06:17:06;99.40;;;10.07;;
76953;SDS011;65893;51.698;-0.292;2023-02-07T06:19:32;102.65;;;12.15;;
76953;SDS011;65893;51.698;-0.292;2023-02-07T06:21:58;81.80;;;10.55;;
76953;SDS011;65893;51.698;-0.292;2023-02-07T06:24:24;85.57;;;12.55;;
76953;SDS011;65893;51.698;-0.292;2023-02-07T06:26:50;40.58;;;10.38;;
76953;SDS011;65893;51.698;-0.292;2023-02-07T06:31:42;69.97;;;9.63;;
76953;SDS011;65893;51.698;-0.292;2023-02-07T06:36:34;43.75;;;8.52;;
76953;SDS011;65893;51.698;-0.292;2023-02-07T06:41:26;80.97;;;11.82;;
76953;SDS011;65893;51.698;-0.292;2023-02-07T06:43:52;87.28;;;11.38;;
76953;SDS011;65893;51.698;-0.292;2023-02-07T06:46:18;69.70;;;12.20;;
76953;SDS011;65893;51.698;-0.292;2023-02-07T06:48:44;78.85;;;13.50;;
76953;SDS011;65893;51.698;-0.292;2023-02-07T06:51:10;91.57;;;15.77;;
76953;SDS011;65893;51.698;-0.292;2023-02-07T06:53:36;69.72;;;14.35;;
76953;SDS011;65893;51.698;-0.292;2023-02-07T06:58:28;25.77;;;9.02;;
76953;SDS011;65893;51.698;-0.292;2023-02-07T07:00:54;38.15;;;9.35;;
76953;SDS011;65893;51.698;-0.292;2023-02-07T07:03:20;26.85;;;9.07;;
76953;SDS011;65893;51.698;-0.292;2023-02-07T07:05:51;35.03;;;9.02;;
76953;SDS011;65893;51.698;-0.292;2023-02-07T07:08:17;30.27;;;9.63;;
76953;SDS011;65893;51.698;-0.292;2023-02-07T07:10:43;30.88;;;9.98;;
76953;SDS011;65893;51.698;-0.292;2023-02-07T07:15:35;26.45;;;8.38;;
76953;SDS011;65893;51.698;-0.292;2023-02-07T07:18:01;26.27;;;7.68;;
76953;SDS011;65893;51.698;-0.292;2023-02-07T07:22:53;35.38;;;8.02;;
76953;SDS011;65893;51.698;-0.292;2023-02-07T07:25:19;30.85;;;8.30;;
76953;SDS011;65893;51.698;-0.292;2023-02-07T07:27:46;22.52;;;7.93;;
76953;SDS011;65893;51.698;-0.292;2023-02-07T07:32:38;31.63;;;9.13;;
76953;SDS011;65893;51.698;-0.292;2023-02-07T07:35:04;32.00;;;9.35;;
76953;SDS011;65893;51.698;-0.292;2023-02-07T07:37:31;26.75;;;9.52;;
76953;SDS011;65893;51.698;-0.292;2023-02-07T07:39:57;42.28;;;10.75;;
76953;SDS011;65893;51.698;-0.292;2023-02-07T07:44:49;28.73;;;9.00;;
76953;SDS011;65893;51.698;-0.292;2023-02-07T07:49:42;29.98;;;10.65;;
76953;SDS011;65893;51.698;-0.292;2023-02-07T07:52:09;30.48;;;9.68;;
76953;SDS011;65893;51.698;-0.292;2023-02-07T07:57:01;23.40;;;8.40;;
76953;SDS011;65893;51.698;-0.292;2023-02-07T07:59:27;30.30;;;10.40;;
76953;SDS011;65893;51.698;-0.292;2023-02-07T08:01:53;36.42;;;11.15;;
76953;SDS011;65893;51.698;-0.292;2023-02-07T08:04:19;37.38;;;10.85;;
76953;SDS011;65893;51.698;-0.292;2023-02-07T08:09:12;57.58;;;11.13;;
76953;SDS011;65893;51.698;-0.292;2023-02-07T08:14:04;59.28;;;11.95;;
76953;SDS011;65893;51.698;-0.292;2023-02-07T08:16:30;76.40;;;12.65;;
76953;SDS011;65893;51.698;-0.292;2023-02-07T08:18:56;70.38;;;12.40;;
76953;SDS011;65893;51.698;-0.292;2023-02-07T08:21:22;103.22;;;14.98;;
76953;SDS011;65893;51.698;-0.292;2023-02-07T08:23:50;72.57;;;14.52;;
76953;SDS011;65893;51.698;-0.292;2023-02-07T08:26:19;85.45;;;10.30;;
76953;SDS011;65893;51.698;-0.292;2023-02-07T08:28:45;46.10;;;9.82;;
76953;SDS011;65893;51.698;-0.292;2023-02-07T08:31:12;62.28;;;10.60;;
76953;SDS011;65893;51.698;-0.292;2023-02-07T08:36:04;25.75;;;7.80;;
76953;SDS011;65893;51.698;-0.292;2023-02-07T08:38:33;34.25;;;7.97;;
76953;SDS011;65893;51.698;-0.292;2023-02-07T08:40:59;45.03;;;8.57;;
76953;SDS011;65893;51.698;-0.292;2023-02-07T08:45:52;25.60;;;7.57;;
76953;SDS011;65893;51.698;-0.292;2023-02-07T08:48:18;21.40;;;7.57;;
76953;SDS011;65893;51.698;-0.292;2023-02-07T08:50:44;31.80;;;7.65;;
76953;SDS011;65893;51.698;-0.292;2023-02-07T08:53:10;48.38;;;8.18;;
76953;SDS011;65893;51.698;-0.292;2023-02-07T08:55:39;25.00;;;7.30;;
76953;SDS011;65893;51.698;-0.292;2023-02-07T08:58:05;36.13;;;7.85;;
76953;SDS011;65893;51.698;-0.292;2023-02-07T09:00:32;26.63;;;6.97;;
76953;SDS011;65893;51.698;-0.292;2023-02-07T09:02:59;36.33;;;6.32;;
76953;SDS011;65893;51.698;-0.292;2023-02-07T09:05:25;40.47;;;7.63;;
76953;SDS011;65893;51.698;-0.292;2023-02-07T09:07:51;23.40;;;5.90;;
76953;SDS011;65893;51.698;-0.292;2023-02-07T09:12:43;17.90;;;6.45;;
76953;SDS011;65893;51.698;-0.292;2023-02-07T09:15:12;36.45;;;7.20;;
76953;SDS011;65893;51.698;-0.292;2023-02-07T09:17:38;21.23;;;6.60;;
76953;SDS011;65893;51.698;-0.292;2023-02-07T09:20:04;39.50;;;8.68;;
76953;SDS011;65893;51.698;-0.292;2023-02-07T09:22:31;22.98;;;7.13;;
76953;SDS011;65893;51.698;-0.292;2023-02-07T09:25:16;49.75;;;7.15;;
76953;SDS011;65893;51.698;-0.292;2023-02-07T09:27:43;54.10;;;9.00;;
76953;SDS011;65893;51.698;-0.292;2023-02-07T09:32:35;51.42;;;8.10;;
76953;SDS011;65893;51.698;-0.292;2023-02-07T09:35:01;75.40;;;7.65;;
76953;SDS011;65893;51.698;-0.292;2023-02-07T09:37:27;58.10;;;7.75;;
76953;SDS011;65893;51.698;-0.292;2023-02-07T09:39:53;78.13;;;8.23;;
76953;SDS011;65893;51.698;-0.292;2023-02-07T09:47:30;67.18;;;9.93;;
76953;SDS011;65893;51.698;-0.292;2023-02-07T09:49:58;57.10;;;7.80;;
76953;SDS011;65893;51.698;-0.292;2023-02-07T09:52:32;82.30;;;9.50;;
76953;SDS011;65893;51.698;-0.292;2023-02-07T09:55:00;91.50;;;10.45;;
76953;SDS011;65893;51.698;-0.292;2023-02-07T09:57:41;61.60;;;9.10;;
76953;SDS011;65893;51.698;-0.292;2023-02-07T10:05:36;282.65;;;42.67;;
76953;SDS011;65893;51.698;-0.292;2023-02-07T10:08:06;201.88;;;29.33;;
76953;SDS011;65893;51.698;-0.292;2023-02-07T10:10:37;131.32;;;14.70;;
76953;SDS011;65893;51.698;-0.292;2023-02-07T10:33:33;63.35;;;12.77;;
76953;SDS011;65893;51.698;-0.292;2023-02-07T10:36:05;56.60;;;10.77;;
76953;SDS011;65893;51.698;-0.292;2023-02-07T10:38:42;159.57;;;22.95;;
76953;SDS011;65893;51.698;-0.292;2023-02-07T10:41:19;37.78;;;9.40;;
76953;SDS011;65893;51.698;-0.292;2023-02-07T10:43:47;102.38;;;13.32;;
76953;SDS011;65893;51.698;-0.292;2023-02-07T10:46:14;36.25;;;11.77;;
76953;SDS011;65893;51.698;-0.292;2023-02-07T10:48:41;33.35;;;11.05;;
76953;SDS011;65893;51.698;-0.292;2023-02-07T10:51:18;38.92;;;11.85;;
76953;SDS011;65893;51.698;-0.292;2023-02-07T10:53:46;26.35;;;10.38;;
76953;SDS011;65893;51.698;-0.292;2023-02-07T10:56:22;36.53;;;13.50;;
76953;SDS011;65893;51.698;-0.292;2023-02-07T10:58:49;39.63;;;13.65;;
76953;SDS011;65893;51.698;-0.292;2023-02-07T11:03:41;33.53;;;12.93;;
76953;SDS011;65893;51.698;-0.292;2023-02-07T11:06:07;39.90;;;14.48;;
76953;SDS011;65893;51.698;-0.292;2023-02-07T11:08:34;44.65;;;13.38;;
76953;SDS011;65893;51.698;-0.292;2023-02-07T11:13:48;48.67;;;15.77;;
76953;SDS011;65893;51.698;-0.292;2023-02-07T11:16:18;85.88;;;17.80;;
76953;SDS011;65893;51.698;-0.292;2023-02-07T11:18:57;37.67;;;13.77;;
76953;SDS011;65893;51.698;-0.292;2023-02-07T11:21:41;52.08;;;16.48;;
76953;SDS011;65893;51.698;-0.292;2023-02-07T11:26:48;40.35;;;13.10;;
76953;SDS011;65893;51.698;-0.292;2023-02-07T11:29:17;41.30;;;14.00;;
76953;SDS011;65893;51.698;-0.292;2023-02-07T11:31:44;38.38;;;12.93;;
76953;SDS011;65893;51.698;-0.292;2023-02-07T11:39:22;40.92;;;13.40;;
76953;SDS011;65893;51.698;-0.292;2023-02-07T11:41:52;33.30;;;13.30;;
76953;SDS011;65893;51.698;-0.292;2023-02-07T11:44:22;35.70;;;13.02;;
76953;SDS011;65893;51.698;-0.292;2023-02-07T11:46:48;36.60;;;11.88;;
76953;SDS011;65893;51.698;-0.292;2023-02-07T11:49:25;33.70;;;12.60;;
76953;SDS011;65893;51.698;-0.292;2023-02-07T11:51:52;32.78;;;12.52;;
76953;SDS011;65893;51.698;-0.292;2023-02-07T11:54:22;34.95;;;13.15;;
76953;SDS011;65893;51.698;-0.292;2023-02-07T11:56:50;35.03;;;13.05;;
76953;SDS011;65893;51.698;-0.292;2023-02-07T11:59:19;29.27;;;11.30;;
76953;SDS011;65893;51.698;-0.292;2023-02-07T12:01:49;35.63;;;11.95;;
76953;SDS011;65893;51.698;-0.292;2023-02-07T12:04:18;24.17;;;10.98;;
76953;SDS011;65893;51.698;-0.292;2023-02-07T12:12:03;37.13;;;13.52;;
76953;SDS011;65893;51.698;-0.292;2023-02-07T12:14:46;43.15;;;13.18;;
76953;SDS011;65893;51.698;-0.292;2023-02-07T12:17:15;29.40;;;11.95;;
76953;SDS011;65893;51.698;-0.292;2023-02-07T12:19:51;34.85;;;14.50;;
76953;SDS011;65893;51.698;-0.292;2023-02-07T12:22:20;36.85;;;14.73;;
76953;SDS011;65893;51.698;-0.292;2023-02-07T12:25:13;35.63;;;13.73;;
76953;SDS011;65893;51.698;-0.292;2023-02-07T12:27:38;41.72;;;14.55;;
76953;SDS011;65893;51.698;-0.292;2023-02-07T12:30:11;34.10;;;15.93;;
76953;SDS011;65893;51.698;-0.292;2023-02-07T12:40:47;38.85;;;14.43;;
76953;SDS011;65893;51.698;-0.292;2023-02-07T12:56:17;33.17;;;12.32;;
76953;SDS011;65893;51.698;-0.292;2023-02-07T13:04:55;36.28;;;11.13;;
76953;SDS011;65893;51.698;-0.292;2023-02-07T13:06:56;26.50;;;9.75;;
76953;SDS011;65893;51.698;-0.292;2023-02-07T13:09:41;24.15;;;8.32;;
76953;SDS011;65893;51.698;-0.292;2023-02-07T13:12:11;26.17;;;9.55;;
76953;SDS011;65893;51.698;-0.292;2023-02-07T13:19:46;16.30;;;6.57;;
76953;SDS011;65893;51.698;-0.292;2023-02-07T13:24:59;13.60;;;4.43;;
76953;SDS011;65893;51.698;-0.292;2023-02-07T13:27:26;14.75;;;3.63;;
76953;SDS011;65893;51.698;-0.292;2023-02-07T13:29:53;16.33;;;5.07;;
76953;SDS011;65893;51.698;-0.292;2023-02-07T13:32:24;19.50;;;4.60;;
76953;SDS011;65893;51.698;-0.292;2023-02-07T13:45:14;15.95;;;2.85;;
76953;SDS011;65893;51.698;-0.292;2023-02-07T13:50:13;11.02;;;2.83;;
76953;SDS011;65893;51.698;-0.292;2023-02-07T13:52:47;11.65;;;2.88;;
76953;SDS011;65893;51.698;-0.292;2023-02-07T13:57:43;12.45;;;2.92;;
76953;SDS011;65893;51.698;-0.292;2023-02-07T14:03:01;12.00;;;2.72;;
76953;SDS011;65893;51.698;-0.292;2023-02-07T14:05:31;14.77;;;2.90;;
76953;SDS011;65893;51.698;-0.292;2023-02-07T14:08:05;13.85;;;4.35;;
76953;SDS011;65893;51.698;-0.292;2023-02-07T14:10:47;11.95;;;3.72;;
76953;SDS011;65893;51.698;-0.292;2023-02-07T14:13:21;17.02;;;4.75;;
76953;SDS011;65893;51.698;-0.292;2023-02-07T14:21:02;15.98;;;4.38;;
76953;SDS011;65893;51.698;-0.292;2023-02-07T14:31:46;13.48;;;4.05;;
76953;SDS011;65893;51.698;-0.292;2023-02-07T14:34:13;16.48;;;4.65;;
76953;SDS011;65893;51.698;-0.292;2023-02-07T14:36:39;14.32;;;4.07;;
76953;SDS011;65893;51.698;-0.292;2023-02-07T14:41:34;13.73;;;4.75;;
76953;SDS011;65893;51.698;-0.292;2023-02-07T14:44:01;14.30;;;4.63;;
76953;SDS011;65893;51.698;-0.292;2023-02-07T14:46:32;19.98;;;4.90;;
76953;SDS011;65893;51.698;-0.292;2023-02-07T14:51:44;15.90;;;6.10;;
76953;SDS011;65893;51.698;-0.292;2023-02-07T15:02:23;16.60;;;5.13;;
76953;SDS011;65893;51.698;-0.292;2023-02-07T15:04:44;12.70;;;5.13;;
76953;SDS011;65893;51.698;-0.292;2023-02-07T15:07:11;17.20;;;5.65;;
76953;SDS011;65893;51.698;-0.292;2023-02-07T15:09:37;19.33;;;6.00;;
76953;SDS011;65893;51.698;-0.292;2023-02-07T15:12:04;19.05;;;6.88;;
76953;SDS011;65893;51.698;-0.292;2023-02-07T15:14:33;21.73;;;6.10;;
76953;SDS011;65893;51.698;-0.292;2023-02-07T15:17:00;20.17;;;6.20;;
76953;SDS011;65893;51.698;-0.292;2023-02-07T15:21:55;18.80;;;6.05;;
76953;SDS011;65893;51.698;-0.292;2023-02-07T15:24:23;18.50;;;6.38;;
76953;SDS011;65893;51.698;-0.292;2023-02-07T15:26:53;15.27;;;4.53;;
76953;SDS011;65893;51.698;-0.292;2023-02-07T15:29:22;13.98;;;5.38;;
76953;SDS011;65893;51.698;-0.292;2023-02-07T15:31:49;15.30;;;5.63;;
76953;SDS011;65893;51.698;-0.292;2023-02-07T15:34:19;21.00;;;5.97;;
76953;SDS011;65893;51.698;-0.292;2023-02-07T15:36:47;19.73;;;5.60;;
76953;SDS011;65893;51.698;-0.292;2023-02-07T15:39:23;17.77;;;5.60;;
76953;SDS011;65893;51.698;-0.292;2023-02-07T15:41:50;17.58;;;5.07;;
76953;SDS011;65893;51.698;-0.292;2023-02-07T15:44:27;19.75;;;5.07;;
76953;SDS011;65893;51.698;-0.292;2023-02-07T15:49:27;14.65;;;5.22;;
76953;SDS011;65893;51.698;-0.292;2023-02-07T15:51:59;19.52;;;5.78;;
76953;SDS011;65893;51.698;-0.292;2023-02-07T15:54:26;17.90;;;6.07;;
76953;SDS011;65893;51.698;-0.292;2023-02-07T15:56:56;18.33;;;5.18;;
76953;SDS011;65893;51.698;-0.292;2023-02-07T15:59:22;17.30;;;4.25;;
76953;SDS011;65893;51.698;-0.292;2023-02-07T16:01:50;14.65;;;4.95;;
76953;SDS011;65893;51.698;-0.292;2023-02-07T16:04:17;16.98;;;5.15;;
76953;SDS011;65893;51.698;-0.292;2023-02-07T16:09:40;15.13;;;4.13;;
76953;SDS011;65893;51.698;-0.292;2023-02-07T16:17:23;11.00;;;3.80;;
76953;SDS011;65893;51.698;-0.292;2023-02-07T16:19:50;16.95;;;4.45;;
76953;SDS011;65893;51.698;-0.292;2023-02-07T16:22:18;12.88;;;3.85;;
76953;SDS011;65893;51.698;-0.292;2023-02-07T16:24:45;10.73;;;3.67;;
76953;SDS011;65893;51.698;-0.292;2023-02-07T16:27:14;13.25;;;4.80;;
76953;SDS011;65893;51.698;-0.292;2023-02-07T16:29:42;19.30;;;4.68;;
76953;SDS011;65893;51.698;-0.292;2023-02-07T16:32:09;15.18;;;4.72;;
76953;SDS011;65893;51.698;-0.292;2023-02-07T16:34:35;13.70;;;3.78;;
76953;SDS011;65893;51.698;-0.292;2023-02-07T16:37:01;15.48;;;4.32;;
76953;SDS011;65893;51.698;-0.292;2023-02-07T16:39:27;17.20;;;4.18;;
76953;SDS011;65893;51.698;-0.292;2023-02-07T16:41:54;12.90;;;4.93;;
76953;SDS011;65893;51.698;-0.292;2023-02-07T16:44:22;18.05;;;4.97;;
76953;SDS011;65893;51.698;-0.292;2023-02-07T16:46:48;16.80;;;4.70;;
76953;SDS011;65893;51.698;-0.292;2023-02-07T16:49:15;20.20;;;4.15;;
76953;SDS011;65893;51.698;-0.292;2023-02-07T16:51:41;16.13;;;4.47;;
76953;SDS011;65893;51.698;-0.292;2023-02-07T16:54:08;12.75;;;3.53;;
76953;SDS011;65893;51.698;-0.292;2023-02-07T16:56:34;13.13;;;4.18;;
76953;SDS011;65893;51.698;-0.292;2023-02-07T16:59:00;13.65;;;4.22;;
76953;SDS011;65893;51.698;-0.292;2023-02-07T17:01:28;21.45;;;5.50;;
76953;SDS011;65893;51.698;-0.292;2023-02-07T17:03:54;16.60;;;4.88;;
76953;SDS011;65893;51.698;-0.292;2023-02-07T17:06:21;16.52;;;5.25;;
76953;SDS011;65893;51.698;-0.292;2023-02-07T17:08:47;16.10;;;5.03;;
76953;SDS011;65893;51.698;-0.292;2023-02-07T17:11:15;13.43;;;4.53;;
76953;SDS011;65893;51.698;-0.292;2023-02-07T17:13:44;15.68;;;4.45;;
76953;SDS011;65893;51.698;-0.292;2023-02-07T17:16:11;14.85;;;4.07;;
76953;SDS011;65893;51.698;-0.292;2023-02-07T17:18:40;18.63;;;4.25;;
76953;SDS011;65893;51.698;-0.292;2023-02-07T17:21:06;11.23;;;3.47;;
76953;SDS011;65893;51.698;-0.292;2023-02-07T17:23:37;14.88;;;4.97;;
76953;SDS011;65893;51.698;-0.292;2023-02-07T17:26:04;14.40;;;4.03;;
76953;SDS011;65893;51.698;-0.292;2023-02-07T17:28:30;17.40;;;4.90;;
76953;SDS011;65893;51.698;-0.292;2023-02-07T17:30:56;15.43;;;5.00;;
76953;SDS011;65893;51.698;-0.292;2023-02-07T17:33:23;22.33;;;4.57;;
76953;SDS011;65893;51.698;-0.292;2023-02-07T17:35:49;11.95;;;3.97;;
76953;SDS011;65893;51.698;-0.292;2023-02-07T17:38:15;17.00;;;5.10;;
76953;SDS011;65893;51.698;-0.292;2023-02-07T17:43:07;12.90;;;4.88;;
76953;SDS011;65893;51.698;-0.292;2023-02-07T17:45:34;13.43;;;5.30;;
76953;SDS011;65893;51.698;-0.292;2023-02-07T17:48:00;12.68;;;4.93;;
76953;SDS011;65893;51.698;-0.292;2023-02-07T17:50:36;17.52;;;4.97;;
76953;SDS011;65893;51.698;-0.292;2023-02-07T17:53:05;19.15;;;5.25;;
76953;SDS011;65893;51.698;-0.292;2023-02-07T17:55:31;19.08;;;5.38;;
76953;SDS011;65893;51.698;-0.292;2023-02-07T17:57:57;15.10;;;5.03;;
76953;SDS011;65893;51.698;-0.292;2023-02-07T18:00:25;19.30;;;7.00;;
76953;SDS011;65893;51.698;-0.292;2023-02-07T18:02:51;19.85;;;6.65;;
76953;SDS011;65893;51.698;-0.292;2023-02-07T18:05:17;19.20;;;5.97;;
76953;SDS011;65893;51.698;-0.292;2023-02-07T18:07:44;24.85;;;6.88;;
76953;SDS011;65893;51.698;-0.292;2023-02-07T18:10:21;23.70;;;7.65;;
76953;SDS011;65893;51.698;-0.292;2023-02-07T18:12:48;24.17;;;6.55;;
76953;SDS011;65893;51.698;-0.292;2023-02-07T18:15:14;20.98;;;7.25;;
76953;SDS011;65893;51.698;-0.292;2023-02-07T18:17:42;19.85;;;5.70;;
76953;SDS011;65893;51.698;-0.292;2023-02-07T18:20:11;23.42;;;6.43;;
76953;SDS011;65893;51.698;-0.292;2023-02-07T18:22:37;16.48;;;5.47;;
76953;SDS011;65893;51.698;-0.292;2023-02-07T18:25:06;26.52;;;5.03;;
76953;SDS011;65893;51.698;-0.292;2023-02-07T18:27:32;16.80;;;5.35;;
76953;SDS011;65893;51.698;-0.292;2023-02-07T18:29:59;18.52;;;5.32;;
76953;SDS011;65893;51.698;-0.292;2023-02-07T18:32:25;21.27;;;6.90;;
76953;SDS011;65893;51.698;-0.292;2023-02-07T18:34:51;26.17;;;6.60;;
76953;SDS011;65893;51.698;-0.292;2023-02-07T18:37:17;18.85;;;5.88;;
76953;SDS011;65893;51.698;-0.292;2023-02-07T18:39:45;22.98;;;6.57;;
76953;SDS011;65893;51.698;-0.292;2023-02-07T18:42:15;21.38;;;5.85;;
76953;SDS011;65893;51.698;-0.292;2023-02-07T18:44:45;20.70;;;7.43;;
76953;SDS011;65893;51.698;-0.292;2023-02-07T18:47:11;17.65;;;5.20;;
76953;SDS011;65893;51.698;-0.292;2023-02-07T18:49:38;18.48;;;6.05;;
76953;SDS011;65893;51.698;-0.292;2023-02-07T18:52:15;18.10;;;6.80;;
76953;SDS011;65893;51.698;-0.292;2023-02-07T18:54:42;19.90;;;6.20;;
76953;SDS011;65893;51.698;-0.292;2023-02-07T18:57:13;20.85;;;7.03;;
76953;SDS011;65893;51.698;-0.292;2023-02-07T18:59:41;24.60;;;6.68;;
76953;SDS011;65893;51.698;-0.292;2023-02-07T19:02:09;19.08;;;6.97;;
76953;SDS011;65893;51.698;-0.292;2023-02-07T19:07:27;26.67;;;7.13;;
76953;SDS011;65893;51.698;-0.292;2023-02-07T19:09:54;21.70;;;7.03;;
76953;SDS011;65893;51.698;-0.292;2023-02-07T19:12:21;29.25;;;6.95;;
76953;SDS011;65893;51.698;-0.292;2023-02-07T19:14:47;21.80;;;6.38;;
76953;SDS011;65893;51.698;-0.292;2023-02-07T19:17:33;18.30;;;6.38;;